Indian, Virginia
Current Conditions -  °F | °C
As of 9:15 AM on Sunday 21 Dec 2014 (Local Time) from KJFZ Reporting Station
Broken Clouds Broken Clouds  
Wind Chill: 29°   Ceiling: 2600
Heat Index: 33°   Visibility: 10mi
Dew Point: 28°   Wind: 5mph
Humidity: 79%   Direction: 50°NE
Pressure: 30.21"   Gusts: NA
Location:  37.0714°N, 81.7762°W
Report Text: KJFZ 211415Z AUTO 05004KT 10SM BKN026 01/M02 A3021 RMK AO2 T00071025
Loading
Personal Weather Stations






























Interactive Weather Map New forecast layout! Learn more

10-Day Weather Forecast

Advertisements
Track Severe Weather on mobile